Time;durP1;ratioP1;P1;durP2;ratioP2;P2;SDS_P1;SDS_P2;PMS_P1;PMS_P2;Temp;Humidity;BMP_temperature;BMP_pressure;BME280_temperature;BME280_humidity;BME280_pressure;Samples;Min_cycle;Max_cycle;Signal;HPM_P1;HPM_P2
2022/12/08 01:12:30;;;;;;;9.40;2.43;;;8.10;86.80;;;;;;6179466;22;20330;-96
2022/12/08 01:15:06;;;;;;;8.80;3.07;;;8.10;86.40;;;;;;6197205;23;20237;-96
2022/12/08 01:17:58;;;;;;;10.67;3.37;;;8.10;86.20;;;;;;6195289;23;20172;-96
2022/12/08 01:21:09;;;;;;;8.93;2.63;;;8.10;86.10;;;;;;6195759;23;20190;-96
2022/12/08 01:24:05;;;;;;;13.77;3.57;;;8.10;86.10;;;;;;6197157;23;20174;-96
2022/12/08 01:26:48;;;;;;;9.40;2.80;;;8.00;86.20;;;;;;6201047;23;20173;-96
2022/12/08 01:33:00;;;;;;;8.00;2.93;;;8.00;86.20;;;;;;6206792;23;20201;-96
2022/12/08 01:35:48;;;;;;;9.07;2.40;;;8.00;86.20;;;;;;6203466;23;20180;-96
2022/12/08 01:38:36;;;;;;;10.57;2.90;;;7.90;86.20;;;;;;6201397;23;20195;-96
2022/12/08 01:41:10;;;;;;;9.53;2.83;;;7.90;86.40;;;;;;6196420;23;20201;-96
2022/12/08 01:47:13;;;;;;;6.60;2.77;;;7.90;87.40;;;;;;6199792;23;20177;-96
2022/12/08 01:49:51;;;;;;;7.40;2.83;;;7.90;88.00;;;;;;6201993;23;20175;-96
2022/12/08 01:55:44;;;;;;;8.27;2.93;;;7.90;88.90;;;;;;6173918;23;20240;-96
2022/12/08 02:04:27;;;;;;;9.27;2.90;;;7.90;89.20;;;;;;6173383;23;20271;-96
2022/12/08 02:09:43;;;;;;;6.03;2.73;;;7.90;88.90;;;;;;6169684;23;20339;-96
2022/12/08 02:12:33;;;;;;;8.80;3.13;;;7.90;89.10;;;;;;6170865;23;20264;-96
2022/12/08 02:15:20;;;;;;;12.53;3.30;;;7.90;90.00;;;;;;6172776;23;20201;-96
2022/12/08 02:18:04;;;;;;;8.97;3.33;;;7.90;90.00;;;;;;6174605;23;20174;-96
2022/12/08 02:20:58;;;;;;;9.70;3.10;;;7.90;90.00;;;;;;6174812;23;20182;-96
2022/12/08 02:23:38;;;;;;;10.90;3.63;;;7.90;90.00;;;;;;6169900;23;20204;-96
2022/12/08 02:26:58;;;;;;;10.13;3.37;;;7.90;90.00;;;;;;6169720;23;20170;-96
2022/12/08 02:30:12;;;;;;;6.97;3.10;;;7.90;90.10;;;;;;6171138;23;20199;-96
2022/12/08 02:33:19;;;;;;;10.13;3.67;;;7.90;90.10;;;;;;6151815;23;20216;-96
2022/12/08 02:36:23;;;;;;;7.10;3.13;;;8.00;90.00;;;;;;6171445;23;20234;-96
2022/12/08 02:39:26;;;;;;;8.17;3.73;;;7.90;90.00;;;;;;6168577;23;20232;-96
2022/12/08 02:45:14;;;;;;;14.63;5.10;;;7.90;90.00;;;;;;6164861;23;20179;-96
2022/12/08 02:48:08;;;;;;;13.43;4.53;;;8.00;90.10;;;;;;6170394;23;20211;-96
2022/12/08 02:51:04;;;;;;;4.93;2.90;;;8.00;90.10;;;;;;6172788;23;20203;-96
2022/12/08 02:54:05;;;;;;;11.93;4.03;;;8.00;90.20;;;;;;6168415;23;20224;-96
2022/12/08 02:57:10;;;;;;;10.80;4.10;;;8.00;90.00;;;;;;6166749;23;20193;-96
2022/12/08 03:09:22;;;;;;;10.30;3.67;;;8.00;89.70;;;;;;6165965;23;20201;-96
2022/12/08 03:12:02;;;;;;;9.03;3.53;;;8.00;89.60;;;;;;6167572;23;20272;-96
2022/12/08 03:14:34;;;;;;;10.87;3.50;;;8.00;89.20;;;;;;6162228;23;20176;-96
2022/12/08 03:17:38;;;;;;;7.10;3.17;;;8.00;88.90;;;;;;6162645;23;20172;-96
2022/12/08 03:20:27;;;;;;;5.57;2.53;;;8.00;88.80;;;;;;6161469;23;20192;-96
2022/12/08 03:23:00;;;;;;;6.23;2.90;;;8.00;89.00;;;;;;6162517;23;20179;-96
2022/12/08 03:25:52;;;;;;;9.53;2.83;;;7.90;88.60;;;;;;6161872;23;20238;-96
2022/12/08 03:28:49;;;;;;;11.07;3.03;;;7.90;88.90;;;;;;6161852;23;20616;-96
2022/12/08 03:31:38;;;;;;;7.53;2.57;;;7.90;89.70;;;;;;6161649;23;20197;-96
2022/12/08 03:34:44;;;;;;;8.10;2.50;;;7.90;88.50;;;;;;6160580;23;20170;-96
2022/12/08 03:37:21;;;;;;;7.57;2.70;;;7.90;88.60;;;;;;6159214;23;20611;-96
2022/12/08 03:40:01;;;;;;;11.60;2.90;;;7.90;88.30;;;;;;6161414;23;20188;-96
2022/12/08 03:43:06;;;;;;;10.53;2.83;;;7.90;88.30;;;;;;6157619;23;20173;-96
2022/12/08 03:45:37;;;;;;;15.60;4.30;;;7.90;88.50;;;;;;6166251;23;20230;-96
2022/12/08 03:48:18;;;;;;;13.00;4.00;;;7.90;88.30;;;;;;6179836;23;20193;-96
2022/12/08 03:50:59;;;;;;;8.83;2.77;;;7.90;88.40;;;;;;6164559;23;20169;-96
2022/12/08 03:53:40;;;;;;;8.93;2.97;;;7.90;88.50;;;;;;6163646;23;20201;-96
2022/12/08 03:56:22;;;;;;;9.73;3.20;;;7.90;88.60;;;;;;6163065;23;20175;-96
2022/12/08 03:59:19;;;;;;;8.00;2.80;;;7.90;88.90;;;;;;6164292;23;20190;-97
2022/12/08 04:01:56;;;;;;;7.93;2.63;;;7.90;89.00;;;;;;6164714;23;20188;-96
2022/12/08 04:04:32;;;;;;;4.87;2.30;;;7.90;89.00;;;;;;6170419;23;20536;-96
2022/12/08 04:07:02;;;;;;;10.37;3.40;;;7.90;88.90;;;;;;6177898;23;20163;-96
2022/12/08 04:09:40;;;;;;;7.63;3.07;;;7.80;88.70;;;;;;6143064;23;20178;-96
2022/12/08 04:15:07;;;;;;;16.50;5.07;;;7.80;88.10;;;;;;6138287;23;20179;-96
2022/12/08 04:17:50;;;;;;;8.77;4.37;;;7.80;88.00;;;;;;6141107;23;20183;-96
2022/12/08 04:20:30;;;;;;;10.27;3.77;;;7.80;87.80;;;;;;6138393;23;20240;-96
2022/12/08 04:25:54;;;;;;;10.83;4.73;;;7.70;88.50;;;;;;6135700;23;20586;-96
2022/12/08 04:28:36;;;;;;;9.77;4.23;;;7.70;89.30;;;;;;6135089;23;20207;-96
2022/12/08 04:31:11;;;;;;;8.43;4.27;;;7.70;88.30;;;;;;6138557;23;20175;-96
2022/12/08 04:33:47;;;;;;;10.27;4.60;;;7.70;88.20;;;;;;6139393;23;20181;-96
2022/12/08 04:36:22;;;;;;;11.93;4.93;;;7.70;88.60;;;;;;6137025;23;20191;-96
2022/12/08 04:38:54;;;;;;;14.10;5.83;;;7.70;89.10;;;;;;6138061;23;20178;-96
2022/12/08 04:41:35;;;;;;;18.73;6.70;;;7.70;88.10;;;;;;6136283;23;20266;-96
2022/12/08 04:44:09;;;;;;;7.57;4.50;;;7.70;88.10;;;;;;6136359;23;20176;-96
2022/12/08 04:46:41;;;;;;;15.17;6.70;;;7.70;88.40;;;;;;6134532;23;20183;-96
2022/12/08 04:49:09;;;;;;;12.43;5.13;;;7.60;88.30;;;;;;6136514;23;20231;-96
2022/12/08 04:51:40;;;;;;;15.07;6.00;;;7.60;88.40;;;;;;6137202;23;20183;-96
2022/12/08 04:54:08;;;;;;;11.90;5.33;;;7.60;88.10;;;;;;6134338;23;20203;-96
2022/12/08 04:56:37;;;;;;;15.20;6.43;;;7.60;88.10;;;;;;6130579;23;20219;-96
2022/12/08 04:59:28;;;;;;;10.27;5.70;;;7.60;88.60;;;;;;6135822;23;20180;-96
2022/12/08 05:02:00;;;;;;;20.10;6.57;;;7.50;88.90;;;;;;6140840;23;20176;-96
2022/12/08 05:04:34;;;;;;;12.07;5.67;;;7.60;88.70;;;;;;6146362;23;20193;-96
2022/12/08 05:07:08;;;;;;;13.20;5.37;;;7.50;88.70;;;;;;6138184;23;20192;-96
2022/12/08 05:09:38;;;;;;;10.63;5.37;;;7.50;88.90;;;;;;6133691;23;20201;-96
2022/12/08 05:12:10;;;;;;;9.43;4.73;;;7.50;89.20;;;;;;6132643;23;20540;-96
2022/12/08 05:14:45;;;;;;;12.10;5.30;;;7.50;89.60;;;;;;6129683;23;20178;-96
2022/12/08 05:17:20;;;;;;;16.40;5.87;;;7.50;89.60;;;;;;6131145;23;20183;-96
2022/12/08 05:19:48;;;;;;;11.53;5.23;;;7.50;89.70;;;;;;6130733;23;20176;-96
2022/12/08 05:22:19;;;;;;;16.77;6.20;;;7.50;89.60;;;;;;6130641;23;20178;-96
2022/12/08 05:24:51;;;;;;;16.97;6.60;;;7.40;89.60;;;;;;6130961;23;20170;-96
2022/12/08 05:27:27;;;;;;;10.97;5.20;;;7.50;89.70;;;;;;6130168;23;20177;-96
2022/12/08 05:30:00;;;;;;;11.50;5.27;;;7.50;90.00;;;;;;6130246;23;20175;-96
2022/12/08 05:32:32;;;;;;;12.83;5.47;;;7.50;90.00;;;;;;6129173;23;20199;-96
2022/12/08 05:35:00;;;;;;;13.30;5.70;;;7.50;90.00;;;;;;6128067;23;20185;-96
2022/12/08 05:37:29;;;;;;;7.63;3.73;;;7.50;89.80;;;;;;6130694;23;20178;-96
2022/12/08 05:39:57;;;;;;;9.00;4.03;;;7.50;89.60;;;;;;6129256;23;20180;-96
2022/12/08 05:42:27;;;;;;;13.20;4.77;;;7.50;89.30;;;;;;6129079;23;20288;-96
2022/12/08 05:44:54;;;;;;;9.60;3.70;;;7.50;89.50;;;;;;6130453;23;20180;-96
2022/12/08 05:47:24;;;;;;;10.07;3.70;;;7.50;89.40;;;;;;6130269;23;20193;-96
2022/12/08 05:49:58;;;;;;;14.90;4.33;;;7.50;89.50;;;;;;6130886;23;20202;-96
2022/12/08 05:52:27;;;;;;;7.67;3.33;;;7.50;89.50;;;;;;6132503;23;20240;-96
2022/12/08 05:55:00;;;;;;;8.73;3.83;;;7.50;89.30;;;;;;6132202;23;20233;-96
2022/12/08 05:57:30;;;;;;;9.30;4.03;;;7.50;89.70;;;;;;6135255;23;20687;-96
2022/12/08 06:00:02;;;;;;;11.73;4.07;;;7.50;89.40;;;;;;6146276;23;20187;-96
2022/12/08 06:02:34;;;;;;;7.90;3.50;;;7.50;89.50;;;;;;6141805;23;20600;-96
2022/12/08 06:05:05;;;;;;;15.60;5.33;;;7.50;90.00;;;;;;6152085;23;20184;-96
2022/12/08 06:07:42;;;;;;;7.90;3.30;;;7.50;89.50;;;;;;6146093;23;20171;-96
2022/12/08 06:10:11;;;;;;;9.33;3.77;;;7.50;89.40;;;;;;6135902;23;21020;-96
2022/12/08 06:12:53;;;;;;;14.30;4.30;;;7.50;89.20;;;;;;6131102;23;20186;-96
2022/12/08 06:15:21;;;;;;;14.30;4.83;;;7.50;89.10;;;;;;6137512;23;20236;-96
2022/12/08 06:17:57;;;;;;;14.23;4.87;;;7.60;89.00;;;;;;6135289;23;20293;-96
2022/12/08 06:20:26;;;;;;;10.77;4.10;;;7.50;88.50;;;;;;6138994;23;20173;-96
2022/12/08 06:23:07;;;;;;;13.03;4.40;;;7.60;88.50;;;;;;6140327;23;20216;-96
2022/12/08 06:25:39;;;;;;;12.70;4.20;;;7.60;88.70;;;;;;6144079;23;20237;-96
2022/12/08 06:28:17;;;;;;;9.83;3.47;;;7.60;88.20;;;;;;6150616;23;20193;-96
2022/12/08 06:31:39;;;;;;;9.67;3.37;;;7.60;88.50;;;;;;6149745;23;20522;-96
2022/12/08 06:34:34;;;;;;;6.53;2.30;;;7.60;88.10;;;;;;6151122;23;20177;-96
2022/12/08 06:37:56;;;;;;;9.43;3.13;;;7.50;87.90;;;;;;6151274;23;20471;-96
2022/12/08 07:04:33;;;;;;;13.17;3.67;;;7.40;86.80;;;;;;6140778;23;20176;-96
2022/12/08 07:07:20;;;;;;;7.83;2.90;;;7.40;87.30;;;;;;6108260;23;20180;-96
2022/12/08 07:17:07;;;;;;;6.23;2.40;;;7.30;86.10;;;;;;6136440;23;20209;-96
2022/12/08 07:19:45;;;;;;;5.90;2.57;;;7.30;86.10;;;;;;6134403;23;20181;-96
2022/12/08 07:22:26;;;;;;;13.37;3.53;;;7.20;86.00;;;;;;6138208;23;20189;-96
2022/12/08 07:25:03;;;;;;;6.97;2.70;;;7.20;86.00;;;;;;6142045;23;20239;-96
2022/12/08 07:27:33;;;;;;;7.47;2.70;;;7.20;86.00;;;;;;6134141;23;20179;-96
2022/12/08 07:30:17;;;;;;;6.50;2.50;;;7.20;86.00;;;;;;6134234;23;20230;-96
2022/12/08 07:32:47;;;;;;;7.83;3.00;;;7.20;86.00;;;;;;6139384;23;20184;-89
2022/12/08 07:35:35;;;;;;;4.33;2.27;;;7.20;86.00;;;;;;6140360;23;20207;-96
2022/12/08 07:38:10;;;;;;;5.20;2.47;;;7.10;85.80;;;;;;6139278;23;20176;-96
2022/12/08 07:40:49;;;;;;;9.57;3.40;;;7.10;85.90;;;;;;6135790;23;20174;-96
2022/12/08 07:43:27;;;;;;;10.10;3.57;;;7.10;85.90;;;;;;6137526;23;20605;-96
2022/12/08 07:46:01;;;;;;;7.63;3.30;;;7.10;85.90;;;;;;6130506;23;20178;-96
2022/12/08 07:48:35;;;;;;;11.43;3.93;;;7.00;85.60;;;;;;6131073;23;20227;-96
2022/12/08 07:51:11;;;;;;;7.23;3.10;;;7.00;85.70;;;;;;6129076;23;20173;-96
2022/12/08 07:53:46;;;;;;;6.40;2.80;;;7.00;85.80;;;;;;6128862;23;20264;-96
2022/12/08 07:56:18;;;;;;;6.73;3.10;;;6.90;86.00;;;;;;6130412;23;20179;-96
2022/12/08 07:58:53;;;;;;;7.73;3.27;;;7.00;86.40;;;;;;6126274;23;20183;-96
2022/12/08 08:01:31;;;;;;;11.43;3.83;;;6.90;86.40;;;;;;6127794;23;20233;-96
2022/12/08 08:04:08;;;;;;;16.13;4.87;;;6.90;86.50;;;;;;6130725;23;20233;-96
2022/12/08 08:06:40;;;;;;;8.57;3.17;;;6.90;86.70;;;;;;6124492;23;20194;-95
2022/12/08 08:09:21;;;;;;;11.40;3.40;;;6.90;86.60;;;;;;6123940;23;20202;-96
2022/12/08 08:11:53;;;;;;;9.53;3.67;;;6.90;86.70;;;;;;6131814;23;20175;-96
2022/12/08 08:14:24;;;;;;;8.53;3.27;;;6.90;86.50;;;;;;6132026;23;20255;-96
2022/12/08 08:16:53;;;;;;;8.17;3.10;;;6.90;86.70;;;;;;6131893;23;20235;-96
2022/12/08 08:19:27;;;;;;;17.70;5.40;;;6.90;86.80;;;;;;6134914;23;20277;-96
2022/12/08 08:21:59;;;;;;;24.43;5.80;;;6.90;86.90;;;;;;6149064;23;20164;-96
2022/12/08 08:24:45;;;;;;;8.63;3.23;;;6.90;86.80;;;;;;6136877;23;20248;-96
2022/12/08 08:27:26;;;;;;;8.40;3.10;;;6.90;86.80;;;;;;6136985;23;20175;-96
2022/12/08 08:30:25;;;;;;;8.20;3.53;;;6.90;86.90;;;;;;6135751;23;20199;-96
2022/12/08 08:33:06;;;;;;;7.80;3.70;;;6.90;86.90;;;;;;6133047;23;20198;-96
2022/12/08 08:38:48;;;;;;;6.13;3.20;;;6.90;86.00;;;;;;6135645;23;20615;-96
2022/12/08 08:41:20;;;;;;;11.33;3.90;;;6.90;85.80;;;;;;6135464;23;20223;-96
2022/12/08 08:43:53;;;;;;;11.97;4.53;;;7.00;85.80;;;;;;6135084;23;20182;-96
2022/12/08 08:46:39;;;;;;;8.70;4.07;;;6.90;85.70;;;;;;6136143;23;20179;-96
2022/12/08 08:51:55;;;;;;;7.10;3.33;;;6.90;85.60;;;;;;6133466;23;20287;-96
2022/12/08 08:54:35;;;;;;;10.70;4.07;;;6.90;85.70;;;;;;6130771;23;20228;-96
2022/12/08 08:57:29;;;;;;;11.53;4.30;;;6.90;85.60;;;;;;6134773;23;20175;-96
2022/12/08 09:00:17;;;;;;;10.07;3.97;;;6.90;85.20;;;;;;6132051;23;20219;-96
2022/12/08 09:02:48;;;;;;;8.20;3.33;;;6.90;84.90;;;;;;6129331;23;20179;-96
2022/12/08 09:05:32;;;;;;;10.93;4.50;;;6.90;84.90;;;;;;6129945;23;20187;-96
2022/12/08 09:08:11;;;;;;;9.60;3.70;;;6.90;85.30;;;;;;6128255;23;20257;-96
2022/12/08 09:10:58;;;;;;;12.53;4.17;;;6.90;85.60;;;;;;6131429;23;20556;-96
2022/12/08 09:13:36;;;;;;;7.10;3.53;;;6.90;85.40;;;;;;6128975;23;20631;-96
2022/12/08 09:16:10;;;;;;;9.57;3.60;;;6.90;85.50;;;;;;6133887;23;20188;-96
2022/12/08 09:18:50;;;;;;;8.23;3.37;;;6.90;85.70;;;;;;6135918;23;20183;-96
2022/12/08 09:21:28;;;;;;;7.43;3.80;;;6.90;85.70;;;;;;6135600;23;20498;-96
2022/12/08 09:24:14;;;;;;;11.37;3.73;;;6.90;86.20;;;;;;6135167;23;20180;-96
2022/12/08 09:27:00;;;;;;;10.67;4.53;;;6.90;86.10;;;;;;6135307;23;20171;-96
2022/12/08 09:30:10;;;;;;;9.43;3.60;;;7.00;85.90;;;;;;6134548;23;20198;-96
2022/12/08 09:32:55;;;;;;;8.60;3.93;;;7.00;86.40;;;;;;6133949;23;20177;-96
2022/12/08 09:35:51;;;;;;;10.97;4.50;;;7.00;86.60;;;;;;6133078;23;20180;-96
2022/12/08 09:38:28;;;;;;;9.40;4.00;;;7.00;86.90;;;;;;6130402;23;20502;-96
2022/12/08 09:41:21;;;;;;;8.30;4.07;;;7.10;87.00;;;;;;6130642;23;20610;-96
2022/12/08 09:44:26;;;;;;;9.40;3.80;;;7.10;86.90;;;;;;6127892;23;20211;-96
2022/12/08 09:46:56;;;;;;;11.00;4.30;;;7.10;86.90;;;;;;6127320;23;20199;-96
2022/12/08 09:49:53;;;;;;;15.13;4.87;;;7.20;86.60;;;;;;6132429;23;20204;-96
2022/12/08 09:52:31;;;;;;;14.27;5.07;;;7.20;86.40;;;;;;6130049;23;20710;-96
2022/12/08 09:55:06;;;;;;;6.63;3.60;;;7.20;86.30;;;;;;6129487;23;20648;-96
2022/12/08 09:58:15;;;;;;;;;;;;;;;;;;;;;
2022/12/08 10:00:50;;;;;;;16.93;5.40;;;7.30;86.10;;;;;;6133129;23;20170;-96
2022/12/08 10:07:13;;;;;;;11.37;4.50;;;7.30;86.00;;;;;;6135354;23;20180;-96
2022/12/08 10:10:20;;;;;;;10.70;4.30;;;7.30;86.10;;;;;;6133596;23;20234;-96
2022/12/08 10:13:05;;;;;;;11.23;4.43;;;7.40;86.30;;;;;;6132854;23;20255;-96
2022/12/08 10:15:56;;;;;;;13.83;4.53;;;7.30;86.10;;;;;;6134294;23;20282;-96
2022/12/08 10:22:20;;;;;;;9.13;3.70;;;7.40;86.20;;;;;;6126008;23;20290;-96
2022/12/08 10:25:05;;;;;;;8.97;3.30;;;7.40;86.20;;;;;;6137104;23;20175;-96
2022/12/08 10:27:56;;;;;;;11.43;3.70;;;7.50;86.30;;;;;;6137856;23;20178;-96
2022/12/08 10:30:34;;;;;;;9.43;3.30;;;7.50;86.30;;;;;;6136632;23;20231;-96
2022/12/08 10:33:25;;;;;;;6.10;3.10;;;7.60;86.40;;;;;;6138842;23;20181;-96
2022/12/08 10:36:05;;;;;;;13.17;4.10;;;7.60;86.30;;;;;;6145199;23;20225;-96
2022/12/08 10:39:19;;;;;;;6.00;2.27;;;7.60;86.40;;;;;;6149406;23;20208;-96
2022/12/08 10:45:41;;;;;;;10.90;2.87;;;7.70;86.20;;;;;;6134298;23;20211;-96
2022/12/08 10:54:44;;;;;;;8.17;2.90;;;7.80;86.30;;;;;;6035054;23;20210;-96
2022/12/08 11:00:38;;;;;;;8.50;3.00;;;7.90;86.10;;;;;;6125358;23;20178;-96
2022/12/08 11:03:27;;;;;;;9.77;3.83;;;7.90;86.10;;;;;;6100743;23;20521;-96
2022/12/08 11:06:13;;;;;;;7.87;3.67;;;8.00;86.50;;;;;;6128524;23;20171;-96
2022/12/08 11:08:51;;;;;;;6.37;3.37;;;8.00;86.60;;;;;;6128469;23;20184;-96
2022/12/08 11:11:23;;;;;;;7.40;3.37;;;8.00;86.80;;;;;;6128146;23;20252;-96
2022/12/08 11:13:54;;;;;;;12.60;4.30;;;8.10;87.60;;;;;;6131582;23;20261;-96
2022/12/08 11:16:30;;;;;;;5.67;3.20;;;8.10;86.90;;;;;;6135476;23;20195;-96
2022/12/08 11:19:11;;;;;;;10.33;3.83;;;8.10;86.90;;;;;;6135892;23;20203;-96
2022/12/08 11:21:49;;;;;;;11.13;4.33;;;8.10;86.80;;;;;;6135322;23;20170;-96
2022/12/08 11:24:24;;;;;;;8.27;3.73;;;8.10;86.90;;;;;;6135183;23;20226;-96
2022/12/08 11:27:02;;;;;;;12.77;4.87;;;8.20;86.20;;;;;;6130448;23;20626;-96
2022/12/08 11:29:46;;;;;;;10.77;4.13;;;8.20;86.50;;;;;;6127327;23;20195;-96
2022/12/08 11:39:00;;;;;;;7.90;3.30;;;8.40;86.60;;;;;;6074620;23;20186;-96
2022/12/08 11:41:44;;;;;;;10.07;3.83;;;8.50;86.40;;;;;;6116955;23;20178;-95
2022/12/08 11:44:29;;;;;;;55.10;25.47;;;8.60;86.60;;;;;;6125630;23;20501;-96
2022/12/08 11:47:02;;;;;;;32.60;17.60;;;8.70;87.70;;;;;;6127286;23;20178;-96
2022/12/08 11:49:40;;;;;;;13.63;6.13;;;8.80;86.50;;;;;;6129598;23;20205;-96
2022/12/08 11:52:26;;;;;;;14.40;5.63;;;8.80;86.00;;;;;;6130166;23;20500;-96
2022/12/08 11:55:20;;;;;;;11.50;4.13;;;8.80;85.80;;;;;;6125946;23;20178;-96
2022/12/08 11:57:50;;;;;;;9.33;3.30;;;8.90;85.40;;;;;;6124662;23;20271;-96
2022/12/08 12:00:30;;;;;;;8.53;2.87;;;8.90;86.10;;;;;;6124870;23;20553;-96
2022/12/08 12:03:07;;;;;;;7.73;2.83;;;9.00;84.40;;;;;;6124927;23;20180;-96
2022/12/08 12:05:49;;;;;;;8.87;3.27;;;9.10;83.60;;;;;;6125087;23;20183;-95
2022/12/08 12:08:43;;;;;;;6.90;2.77;;;9.00;83.40;;;;;;6124854;23;20212;-96
2022/12/08 12:14:27;;;;;;;15.57;4.30;;;9.10;82.80;;;;;;6129801;23;20242;-96
2022/12/08 12:17:30;;;;;;;8.57;2.87;;;9.10;83.30;;;;;;6134116;23;20221;-96
2022/12/08 12:20:03;;;;;;;14.80;3.23;;;9.10;82.90;;;;;;6137164;23;20592;-96
2022/12/08 12:22:41;;;;;;;5.70;2.40;;;9.10;83.40;;;;;;6139170;23;20281;-96
2022/12/08 12:25:20;;;;;;;10.07;2.97;;;9.10;83.10;;;;;;6138455;23;20253;-96
2022/12/08 12:27:56;;;;;;;8.63;2.80;;;9.10;82.90;;;;;;6137419;23;20180;-96
2022/12/08 12:30:53;;;;;;;6.77;2.60;;;9.10;82.50;;;;;;6138878;23;20220;-96
2022/12/08 12:33:40;;;;;;;9.13;2.83;;;9.10;81.90;;;;;;6136358;23;20627;-96
2022/12/08 12:36:13;;;;;;;6.60;2.37;;;9.20;82.40;;;;;;6136196;23;20587;-96
2022/12/08 12:39:03;;;;;;;7.63;2.53;;;9.20;82.90;;;;;;6135385;23;20487;-95
2022/12/08 12:41:46;;;;;;;7.30;2.27;;;9.10;82.60;;;;;;6128258;23;20251;-95
2022/12/08 12:44:44;;;;;;;9.73;2.70;;;9.10;81.50;;;;;;6129674;23;20203;-96
2022/12/08 12:47:49;;;;;;;7.43;2.17;;;9.10;80.00;;;;;;6119623;23;20265;-96
2022/12/08 12:50:50;;;;;;;6.37;1.73;;;9.10;79.80;;;;;;6132680;23;20620;-96
2022/12/08 12:53:55;;;;;;;11.40;3.17;;;9.00;79.90;;;;;;6147627;23;20185;-96
2022/12/08 12:56:51;;;;;;;7.53;2.13;;;9.00;80.20;;;;;;6136006;23;20167;-96
2022/12/08 12:59:46;;;;;;;6.30;2.20;;;8.90;80.70;;;;;;6136773;23;20173;-96
2022/12/08 13:02:28;;;;;;;3.00;1.10;;;8.90;81.00;;;;;;6121012;23;20182;-96
2022/12/08 13:05:06;;;;;;;6.97;2.00;;;8.80;80.90;;;;;;6127154;23;20555;-96
2022/12/08 13:07:47;;;;;;;6.13;1.90;;;8.90;80.80;;;;;;6124511;23;20175;-96
2022/12/08 13:10:20;;;;;;;7.70;2.47;;;8.80;80.90;;;;;;6123447;23;20214;-96
2022/12/08 13:13:20;;;;;;;6.90;2.30;;;8.80;80.90;;;;;;6122906;23;20201;-96
2022/12/08 13:15:58;;;;;;;5.33;1.83;;;8.70;80.70;;;;;;6125418;23;20178;-96
2022/12/08 13:18:35;;;;;;;14.83;4.03;;;8.70;80.50;;;;;;6129325;23;20252;-95
2022/12/08 13:21:13;;;;;;;9.03;2.77;;;8.60;80.50;;;;;;6135010;23;20179;-96
2022/12/08 13:23:54;;;;;;;10.13;2.90;;;8.50;80.60;;;;;;6128367;23;20174;-96
2022/12/08 13:26:27;;;;;;;11.10;2.77;;;8.50;80.80;;;;;;6127951;23;20278;-95
2022/12/08 13:29:18;;;;;;;7.67;2.40;;;8.40;81.10;;;;;;6126722;23;20168;-96
2022/12/08 13:31:53;;;;;;;8.87;2.53;;;8.30;81.60;;;;;;6126678;23;20205;-96
2022/12/08 13:34:34;;;;;;;8.30;2.73;;;8.30;82.00;;;;;;6126728;23;20178;-95
2022/12/08 13:37:20;;;;;;;8.93;2.97;;;8.30;82.80;;;;;;6128675;23;20991;-96
2022/12/08 13:39:54;;;;;;;9.77;3.07;;;8.20;82.90;;;;;;6127122;23;20177;-96
2022/12/08 13:42:33;;;;;;;9.07;2.87;;;8.20;83.00;;;;;;6127451;23;20237;-96
2022/12/08 13:45:15;;;;;;;7.30;2.97;;;8.10;83.40;;;;;;6128403;23;20176;-96
2022/12/08 13:47:48;;;;;;;10.33;3.20;;;8.10;83.90;;;;;;6127666;23;20629;-96
2022/12/08 13:50:31;;;;;;;6.63;2.47;;;8.10;84.10;;;;;;6124743;23;20364;-96
2022/12/08 13:53:13;;;;;;;10.07;3.60;;;8.10;84.30;;;;;;6125446;23;20543;-96
2022/12/08 13:55:49;;;;;;;9.33;2.97;;;8.10;84.80;;;;;;6137350;23;20170;-95
2022/12/08 13:58:29;;;;;;;10.87;3.57;;;8.00;84.70;;;;;;6134794;23;20183;-96
2022/12/08 14:01:36;;;;;;;10.57;3.63;;;8.10;85.40;;;;;;6129019;23;20164;-96
2022/12/08 14:04:34;;;;;;;9.10;3.40;;;8.10;85.60;;;;;;6130342;23;20177;-96
2022/12/08 14:07:12;;;;;;;8.10;3.33;;;8.10;85.70;;;;;;6130441;23;20173;-96
2022/12/08 14:09:41;;;;;;;9.20;3.30;;;8.10;85.60;;;;;;6126014;23;20266;-95
2022/12/08 14:12:22;;;;;;;12.33;4.50;;;8.10;85.50;;;;;;6126992;23;20283;-96
2022/12/08 14:15:00;;;;;;;8.13;3.73;;;8.10;86.60;;;;;;6125089;23;20171;-96
2022/12/08 14:17:40;;;;;;;11.80;4.17;;;8.10;85.90;;;;;;6126285;23;20193;-95
2022/12/08 14:20:25;;;;;;;8.57;4.13;;;8.10;86.30;;;;;;6125387;23;20612;-96
2022/12/08 14:22:55;;;;;;;11.53;4.67;;;8.10;86.90;;;;;;6124785;23;20178;-96
2022/12/08 14:25:27;;;;;;;10.20;4.13;;;8.10;87.30;;;;;;6126930;23;20204;-94
2022/12/08 14:27:59;;;;;;;11.83;4.27;;;8.10;87.80;;;;;;6126219;23;20261;-95
2022/12/08 14:30:30;;;;;;;7.73;3.77;;;8.10;88.20;;;;;;6126209;23;20256;-95
2022/12/08 14:32:59;;;;;;;12.80;4.17;;;8.10;88.60;;;;;;6125948;23;20181;-96
2022/12/08 14:35:30;;;;;;;11.83;4.57;;;8.20;88.90;;;;;;6125860;23;20182;-95
2022/12/08 14:38:03;;;;;;;10.43;3.23;;;8.20;89.20;;;;;;6125285;23;20206;-96
2022/12/08 14:40:37;;;;;;;5.67;3.20;;;8.20;89.50;;;;;;6125199;23;20181;-96
2022/12/08 14:43:19;;;;;;;13.33;4.30;;;8.30;89.30;;;;;;6126160;23;20167;-96
2022/12/08 14:46:05;;;;;;;13.70;4.03;;;8.30;88.90;;;;;;6127295;23;20163;-96
2022/12/08 14:48:52;;;;;;;6.07;2.80;;;8.30;88.50;;;;;;6127901;23;20690;-96
2022/12/08 14:51:27;;;;;;;7.93;3.50;;;8.40;88.40;;;;;;6127622;23;20200;-96
2022/12/08 14:54:03;;;;;;;16.80;5.63;;;8.40;88.30;;;;;;6139194;23;20180;-96
2022/12/08 14:56:40;;;;;;;11.20;4.07;;;8.40;88.10;;;;;;6139462;23;20673;-96
2022/12/08 14:59:13;;;;;;;7.00;3.73;;;8.40;87.70;;;;;;6129557;23;20221;-96
2022/12/08 15:01:48;;;;;;;10.60;4.10;;;8.40;87.20;;;;;;6132489;23;20183;-96
2022/12/08 15:04:22;;;;;;;21.57;6.73;;;8.40;87.20;;;;;;6136666;23;20173;-94
2022/12/08 15:07:01;;;;;;;9.67;3.80;;;8.40;86.90;;;;;;6146370;23;20166;-96
2022/12/08 15:09:36;;;;;;;7.40;3.07;;;8.40;86.10;;;;;;6142948;23;20178;-96
2022/12/08 15:12:19;;;;;;;5.40;2.30;;;8.40;85.80;;;;;;6135825;23;20196;-96
2022/12/08 15:15:15;;;;;;;8.67;2.83;;;8.40;85.50;;;;;;6133583;23;20186;-96
2022/12/08 15:17:52;;;;;;;9.10;3.07;;;8.40;85.10;;;;;;6136777;23;20252;-96
2022/12/08 15:20:34;;;;;;;7.70;2.50;;;8.40;85.00;;;;;;6134966;23;20231;-96
2022/12/08 15:23:18;;;;;;;10.47;3.60;;;8.40;84.70;;;;;;6136632;23;20173;-96
2022/12/08 15:25:48;;;;;;;7.23;2.23;;;8.30;84.50;;;;;;6138850;23;20181;-96
2022/12/08 15:28:23;;;;;;;13.27;3.67;;;8.30;84.00;;;;;;6139991;23;20259;-96
2022/12/08 15:30:54;;;;;;;11.27;3.23;;;8.30;83.60;;;;;;6142178;23;20200;-96
2022/12/08 15:33:25;;;;;;;10.00;3.43;;;8.30;83.40;;;;;;6141636;23;20253;-96
2022/12/08 15:35:56;;;;;;;14.47;6.90;;;8.20;82.30;;;;;;6139786;23;20650;-96
2022/12/08 15:38:28;;;;;;;26.90;10.97;;;8.20;82.50;;;;;;6132449;23;20555;-96
2022/12/08 15:41:01;;;;;;;49.37;29.87;;;8.10;83.20;;;;;;6130312;23;20240;-96
2022/12/08 15:43:32;;;;;;;50.97;26.80;;;8.10;81.90;;;;;;6130337;23;20686;-96
2022/12/08 15:46:02;;;;;;;34.83;17.80;;;8.10;82.20;;;;;;6128670;23;20243;-96
2022/12/08 15:48:33;;;;;;;17.67;9.87;;;8.10;82.30;;;;;;6128056;23;20176;-96
2022/12/08 15:51:05;;;;;;;12.83;6.27;;;8.00;82.40;;;;;;6128368;23;20208;-96
2022/12/08 15:53:38;;;;;;;13.23;5.23;;;8.00;82.50;;;;;;6135726;23;20182;-96
2022/12/08 16:00:26;;;;;;;7.30;3.20;;;7.90;82.20;;;;;;6150590;23;20164;-96
2022/12/08 16:21:53;;;;;;;17.37;5.57;;;7.60;81.20;;;;;;6139974;23;20245;-96
2022/12/08 16:38:52;;;;;;;10.43;4.67;;;7.30;81.60;;;;;;6136466;23;20182;-94
2022/12/08 16:44:12;;;;;;;8.83;4.03;;;7.20;81.20;;;;;;6142553;23;20210;-96
2022/12/08 16:53:09;;;;;;;9.90;4.33;;;7.00;81.00;;;;;;6138667;23;20261;-96
2022/12/08 16:55:47;;;;;;;9.37;3.90;;;7.00;81.50;;;;;;6142798;23;20174;-96
2022/12/08 16:58:18;;;;;;;11.47;4.97;;;6.90;81.40;;;;;;6144090;23;20176;-96
2022/12/08 17:00:48;;;;;;;11.93;4.60;;;6.90;81.50;;;;;;6143754;23;20180;-95
2022/12/08 17:03:19;;;;;;;13.47;5.73;;;6.90;81.30;;;;;;6143126;23;20176;-95
2022/12/08 17:05:58;;;;;;;12.43;5.47;;;6.80;81.20;;;;;;6142111;23;20226;-96
2022/12/08 17:08:31;;;;;;;9.33;4.90;;;6.70;80.80;;;;;;6136827;23;20236;-96
2022/12/08 17:11:12;;;;;;;12.57;5.77;;;6.70;80.90;;;;;;6133244;23;20293;-96
2022/12/08 17:13:46;;;;;;;11.50;4.47;;;6.60;80.80;;;;;;6136578;23;20179;-96
2022/12/08 17:16:20;;;;;;;11.83;5.13;;;6.60;81.00;;;;;;6133514;23;20174;-96
2022/12/08 17:18:55;;;;;;;11.83;4.70;;;6.60;81.40;;;;;;6133972;23;20242;-96
2022/12/08 17:21:26;;;;;;;13.27;4.90;;;6.50;81.50;;;;;;6141404;23;20167;-96
2022/12/08 17:24:05;;;;;;;13.20;4.73;;;6.50;81.80;;;;;;6147977;23;20681;-96
2022/12/08 17:26:45;;;;;;;7.20;3.37;;;6.40;81.30;;;;;;6143173;23;20171;-95
2022/12/08 17:29:24;;;;;;;10.70;4.03;;;6.40;81.50;;;;;;6140501;23;20175;-95
2022/12/08 17:31:55;;;;;;;14.77;5.30;;;6.40;81.80;;;;;;6136636;23;20217;-96
2022/12/08 17:34:24;;;;;;;9.37;4.37;;;6.30;81.80;;;;;;6138323;23;20195;-94
2022/12/08 17:36:54;;;;;;;13.50;5.00;;;6.30;82.00;;;;;;6138154;23;20184;-95
2022/12/08 17:42:17;;;;;;;13.47;5.53;;;6.30;82.70;;;;;;6139258;23;20176;-95
2022/12/08 17:44:46;;;;;;;11.43;5.27;;;6.20;82.20;;;;;;6136850;23;20180;-95
2022/12/08 17:47:14;;;;;;;17.80;7.43;;;6.20;82.10;;;;;;6134557;23;20774;-95